<?xml version="1.0" encoding="UTF-8" standalone="no" ?>
<gpx xmlns="http://www.topografix.com/GPX/1/1" creator="MapSource 6.11.6" version="1.1" xmlns:xsi="http://www.w3.org/2001/XMLSchema-instance" xsi:schemaLocation="http://www.topografix.com/GPX/1/1 http://www.topografix.com/GPX/1/1/gpx.xsd">

  <metadata>
    <link href="http://www.garmin.com">
      <text>Garmin International</text>
    </link>
    <time>2009-11-20T17:06:03Z</time>
    <bounds maxlat="50.526100" maxlon="6.127170" minlat="50.490390" minlon="6.053810"/>
  </metadata>

  <trk>
    <name>Wanderung durchs Hohe Venn Tour34093</name>
    <extensions>
      <gpxx:TrackExtension xmlns:gpxx="http://www.garmin.com/xmlschemas/GpxExtensions/v3" xmlns:xsi="http://www.w3.org/2001/XMLSchema-instance" xsi:schemaLocation="http://www.garmin.com/xmlschemas/GpxExtensions/v3 http://www.garmin.com/xmlschemas/GpxExtensions/v3/GpxExtensionsv3.xsd">
        <gpxx:DisplayColor>White</gpxx:DisplayColor>
      </gpxx:TrackExtension>
    </extensions>
    <trkseg>
      <trkpt lat="50.491430" lon="6.074320">
        <ele>0.000000</ele>
        <time>2009-11-20T17:48:57Z</time>
      </trkpt>
      <trkpt lat="50.496230" lon="6.062740">
        <ele>0.000000</ele>
        <time>2009-11-20T18:03:37Z</time>
      </trkpt>
      <trkpt lat="50.497980" lon="6.061360">
        <ele>0.000000</ele>
        <time>2009-11-20T18:06:54Z</time>
      </trkpt>
      <trkpt lat="50.497430" lon="6.055870">
        <ele>0.000000</ele>
        <time>2009-11-20T18:12:48Z</time>
      </trkpt>
      <trkpt lat="50.497920" lon="6.054070">
        <ele>0.000000</ele>
        <time>2009-11-20T18:14:53Z</time>
      </trkpt>
      <trkpt lat="50.499120" lon="6.053810">
        <ele>0.000000</ele>
        <time>2009-11-20T18:16:54Z</time>
      </trkpt>
      <trkpt lat="50.499780" lon="6.055140">
        <ele>0.000000</ele>
        <time>2009-11-20T18:18:41Z</time>
      </trkpt>
      <trkpt lat="50.501880" lon="6.061410">
        <ele>0.000000</ele>
        <time>2009-11-20T18:26:13Z</time>
      </trkpt>
      <trkpt lat="50.502670" lon="6.062050">
        <ele>0.000000</ele>
        <time>2009-11-20T18:27:42Z</time>
      </trkpt>
      <trkpt lat="50.503440" lon="6.064200">
        <ele>0.000000</ele>
        <time>2009-11-20T18:30:19Z</time>
      </trkpt>
      <trkpt lat="50.504530" lon="6.066260">
        <ele>0.000000</ele>
        <time>2009-11-20T18:33:10Z</time>
      </trkpt>
      <trkpt lat="50.506600" lon="6.066860">
        <ele>0.000000</ele>
        <time>2009-11-20T18:36:41Z</time>
      </trkpt>
      <trkpt lat="50.507750" lon="6.068920">
        <ele>0.000000</ele>
        <time>2009-11-20T18:39:36Z</time>
      </trkpt>
      <trkpt lat="50.508510" lon="6.068400">
        <ele>0.000000</ele>
        <time>2009-11-20T18:40:59Z</time>
      </trkpt>
      <trkpt lat="50.508400" lon="6.067200">
        <ele>0.000000</ele>
        <time>2009-11-20T18:42:16Z</time>
      </trkpt>
      <trkpt lat="50.509610" lon="6.065230">
        <ele>0.000000</ele>
        <time>2009-11-20T18:45:10Z</time>
      </trkpt>
      <trkpt lat="50.510290" lon="6.065870">
        <ele>0.000000</ele>
        <time>2009-11-20T18:46:30Z</time>
      </trkpt>
      <trkpt lat="50.510920" lon="6.066080">
        <ele>0.000000</ele>
        <time>2009-11-20T18:47:34Z</time>
      </trkpt>
      <trkpt lat="50.512170" lon="6.067290">
        <ele>0.000000</ele>
        <time>2009-11-20T18:50:01Z</time>
      </trkpt>
      <trkpt lat="50.513040" lon="6.066600">
        <ele>0.000000</ele>
        <time>2009-11-20T18:51:39Z</time>
      </trkpt>
      <trkpt lat="50.514250" lon="6.065740">
        <ele>0.000000</ele>
        <time>2009-11-20T18:53:52Z</time>
      </trkpt>
      <trkpt lat="50.516700" lon="6.064280">
        <ele>0.000000</ele>
        <time>2009-11-20T18:58:15Z</time>
      </trkpt>
      <trkpt lat="50.518340" lon="6.062820">
        <ele>0.000000</ele>
        <time>2009-11-20T19:01:23Z</time>
      </trkpt>
      <trkpt lat="50.518880" lon="6.063420">
        <ele>0.000000</ele>
        <time>2009-11-20T19:02:30Z</time>
      </trkpt>
      <trkpt lat="50.519320" lon="6.067540">
        <ele>0.000000</ele>
        <time>2009-11-20T19:06:56Z</time>
      </trkpt>
      <trkpt lat="50.519430" lon="6.070550">
        <ele>0.000000</ele>
        <time>2009-11-20T19:10:08Z</time>
      </trkpt>
      <trkpt lat="50.519540" lon="6.073040">
        <ele>0.000000</ele>
        <time>2009-11-20T19:12:47Z</time>
      </trkpt>
      <trkpt lat="50.520030" lon="6.075100">
        <ele>0.000000</ele>
        <time>2009-11-20T19:15:07Z</time>
      </trkpt>
      <trkpt lat="50.520790" lon="6.077460">
        <ele>0.000000</ele>
        <time>2009-11-20T19:17:56Z</time>
      </trkpt>
      <trkpt lat="50.520960" lon="6.078060">
        <ele>0.000000</ele>
        <time>2009-11-20T19:18:37Z</time>
      </trkpt>
      <trkpt lat="50.521370" lon="6.078570">
        <ele>0.000000</ele>
        <time>2009-11-20T19:19:30Z</time>
      </trkpt>
      <trkpt lat="50.521450" lon="6.079390">
        <ele>0.000000</ele>
        <time>2009-11-20T19:20:23Z</time>
      </trkpt>
      <trkpt lat="50.521420" lon="6.080550">
        <ele>0.000000</ele>
        <time>2009-11-20T19:21:37Z</time>
      </trkpt>
      <trkpt lat="50.521720" lon="6.082650">
        <ele>0.000000</ele>
        <time>2009-11-20T19:23:54Z</time>
      </trkpt>
      <trkpt lat="50.521750" lon="6.084840">
        <ele>0.000000</ele>
        <time>2009-11-20T19:26:13Z</time>
      </trkpt>
      <trkpt lat="50.521800" lon="6.085820">
        <ele>0.000000</ele>
        <time>2009-11-20T19:27:16Z</time>
      </trkpt>
      <trkpt lat="50.521910" lon="6.087410">
        <ele>0.000000</ele>
        <time>2009-11-20T19:28:58Z</time>
      </trkpt>
      <trkpt lat="50.522210" lon="6.088790">
        <ele>0.000000</ele>
        <time>2009-11-20T19:30:31Z</time>
      </trkpt>
      <trkpt lat="50.522840" lon="6.090120">
        <ele>0.000000</ele>
        <time>2009-11-20T19:32:16Z</time>
      </trkpt>
      <trkpt lat="50.522700" lon="6.091060">
        <ele>0.000000</ele>
        <time>2009-11-20T19:33:18Z</time>
      </trkpt>
      <trkpt lat="50.522570" lon="6.092780">
        <ele>0.000000</ele>
        <time>2009-11-20T19:35:08Z</time>
      </trkpt>
      <trkpt lat="50.522190" lon="6.093890">
        <ele>0.000000</ele>
        <time>2009-11-20T19:36:28Z</time>
      </trkpt>
      <trkpt lat="50.521720" lon="6.095140">
        <ele>0.000000</ele>
        <time>2009-11-20T19:38:01Z</time>
      </trkpt>
      <trkpt lat="50.521690" lon="6.096810">
        <ele>0.000000</ele>
        <time>2009-11-20T19:39:47Z</time>
      </trkpt>
      <trkpt lat="50.521390" lon="6.098570">
        <ele>0.000000</ele>
        <time>2009-11-20T19:41:43Z</time>
      </trkpt>
      <trkpt lat="50.521150" lon="6.099690">
        <ele>0.000000</ele>
        <time>2009-11-20T19:42:59Z</time>
      </trkpt>
      <trkpt lat="50.520770" lon="6.100720">
        <ele>0.000000</ele>
        <time>2009-11-20T19:44:15Z</time>
      </trkpt>
      <trkpt lat="50.520900" lon="6.101960">
        <ele>0.000000</ele>
        <time>2009-11-20T19:45:35Z</time>
      </trkpt>
      <trkpt lat="50.521070" lon="6.102990">
        <ele>0.000000</ele>
        <time>2009-11-20T19:46:42Z</time>
      </trkpt>
      <trkpt lat="50.521560" lon="6.104190">
        <ele>0.000000</ele>
        <time>2009-11-20T19:48:13Z</time>
      </trkpt>
      <trkpt lat="50.521750" lon="6.104750">
        <ele>0.000000</ele>
        <time>2009-11-20T19:48:54Z</time>
      </trkpt>
      <trkpt lat="50.521750" lon="6.105350">
        <ele>0.000000</ele>
        <time>2009-11-20T19:49:32Z</time>
      </trkpt>
      <trkpt lat="50.522240" lon="6.106120">
        <ele>0.000000</ele>
        <time>2009-11-20T19:50:41Z</time>
      </trkpt>
      <trkpt lat="50.522350" lon="6.106850">
        <ele>0.000000</ele>
        <time>2009-11-20T19:51:29Z</time>
      </trkpt>
      <trkpt lat="50.522700" lon="6.107840">
        <ele>0.000000</ele>
        <time>2009-11-20T19:52:41Z</time>
      </trkpt>
      <trkpt lat="50.522760" lon="6.108420">
        <ele>0.000000</ele>
        <time>2009-11-20T19:53:19Z</time>
      </trkpt>
      <trkpt lat="50.522840" lon="6.109210">
        <ele>0.000000</ele>
        <time>2009-11-20T19:54:10Z</time>
      </trkpt>
      <trkpt lat="50.523020" lon="6.109990">
        <ele>0.000000</ele>
        <time>2009-11-20T19:55:03Z</time>
      </trkpt>
      <trkpt lat="50.523510" lon="6.110500">
        <ele>0.000000</ele>
        <time>2009-11-20T19:56:01Z</time>
      </trkpt>
      <trkpt lat="50.524000" lon="6.111170">
        <ele>0.000000</ele>
        <time>2009-11-20T19:57:06Z</time>
      </trkpt>
      <trkpt lat="50.524290" lon="6.112110">
        <ele>0.000000</ele>
        <time>2009-11-20T19:58:13Z</time>
      </trkpt>
      <trkpt lat="50.524520" lon="6.112860">
        <ele>0.000000</ele>
        <time>2009-11-20T19:59:06Z</time>
      </trkpt>
      <trkpt lat="50.524750" lon="6.113700">
        <ele>0.000000</ele>
        <time>2009-11-20T20:00:04Z</time>
      </trkpt>
      <trkpt lat="50.524750" lon="6.114170">
        <ele>0.000000</ele>
        <time>2009-11-20T20:00:34Z</time>
      </trkpt>
      <trkpt lat="50.525200" lon="6.114620">
        <ele>0.000000</ele>
        <time>2009-11-20T20:01:28Z</time>
      </trkpt>
      <trkpt lat="50.525620" lon="6.115200">
        <ele>0.000000</ele>
        <time>2009-11-20T20:02:24Z</time>
      </trkpt>
      <trkpt lat="50.525880" lon="6.115690">
        <ele>0.000000</ele>
        <time>2009-11-20T20:03:04Z</time>
      </trkpt>
      <trkpt lat="50.526030" lon="6.116210">
        <ele>0.000000</ele>
        <time>2009-11-20T20:03:41Z</time>
      </trkpt>
      <trkpt lat="50.526100" lon="6.116570">
        <ele>0.000000</ele>
        <time>2009-11-20T20:04:05Z</time>
      </trkpt>
      <trkpt lat="50.525660" lon="6.116490">
        <ele>0.000000</ele>
        <time>2009-11-20T20:04:49Z</time>
      </trkpt>
      <trkpt lat="50.525240" lon="6.116420">
        <ele>0.000000</ele>
        <time>2009-11-20T20:05:31Z</time>
      </trkpt>
      <trkpt lat="50.524800" lon="6.116340">
        <ele>0.000000</ele>
        <time>2009-11-20T20:06:16Z</time>
      </trkpt>
      <trkpt lat="50.524120" lon="6.116290">
        <ele>0.000000</ele>
        <time>2009-11-20T20:07:24Z</time>
      </trkpt>
      <trkpt lat="50.523290" lon="6.116190">
        <ele>0.000000</ele>
        <time>2009-11-20T20:08:47Z</time>
      </trkpt>
      <trkpt lat="50.522460" lon="6.116140">
        <ele>0.000000</ele>
        <time>2009-11-20T20:10:11Z</time>
      </trkpt>
      <trkpt lat="50.521560" lon="6.115990">
        <ele>0.000000</ele>
        <time>2009-11-20T20:11:41Z</time>
      </trkpt>
      <trkpt lat="50.521350" lon="6.116040">
        <ele>0.000000</ele>
        <time>2009-11-20T20:12:03Z</time>
      </trkpt>
      <trkpt lat="50.521220" lon="6.116400">
        <ele>0.000000</ele>
        <time>2009-11-20T20:12:29Z</time>
      </trkpt>
      <trkpt lat="50.520790" lon="6.118630">
        <ele>0.000000</ele>
        <time>2009-11-20T20:14:57Z</time>
      </trkpt>
      <trkpt lat="50.520340" lon="6.120970">
        <ele>0.000000</ele>
        <time>2009-11-20T20:17:33Z</time>
      </trkpt>
      <trkpt lat="50.519680" lon="6.123250">
        <ele>0.000000</ele>
        <time>2009-11-20T20:20:13Z</time>
      </trkpt>
      <trkpt lat="50.519280" lon="6.123330">
        <ele>0.000000</ele>
        <time>2009-11-20T20:20:53Z</time>
      </trkpt>
      <trkpt lat="50.518780" lon="6.123120">
        <ele>0.000000</ele>
        <time>2009-11-20T20:21:45Z</time>
      </trkpt>
      <trkpt lat="50.518150" lon="6.122750">
        <ele>0.000000</ele>
        <time>2009-11-20T20:22:52Z</time>
      </trkpt>
      <trkpt lat="50.517440" lon="6.122410">
        <ele>0.000000</ele>
        <time>2009-11-20T20:24:07Z</time>
      </trkpt>
      <trkpt lat="50.517010" lon="6.122690">
        <ele>0.000000</ele>
        <time>2009-11-20T20:24:53Z</time>
      </trkpt>
      <trkpt lat="50.516170" lon="6.123030">
        <ele>0.000000</ele>
        <time>2009-11-20T20:26:20Z</time>
      </trkpt>
      <trkpt lat="50.515270" lon="6.123350">
        <ele>0.000000</ele>
        <time>2009-11-20T20:27:53Z</time>
      </trkpt>
      <trkpt lat="50.514700" lon="6.123680">
        <ele>0.000000</ele>
        <time>2009-11-20T20:28:53Z</time>
      </trkpt>
      <trkpt lat="50.513540" lon="6.124130">
        <ele>0.000000</ele>
        <time>2009-11-20T20:30:53Z</time>
      </trkpt>
      <trkpt lat="50.512800" lon="6.124470">
        <ele>0.000000</ele>
        <time>2009-11-20T20:32:10Z</time>
      </trkpt>
      <trkpt lat="50.512170" lon="6.124790">
        <ele>0.000000</ele>
        <time>2009-11-20T20:33:17Z</time>
      </trkpt>
      <trkpt lat="50.512690" lon="6.126680">
        <ele>0.000000</ele>
        <time>2009-11-20T20:35:28Z</time>
      </trkpt>
      <trkpt lat="50.511520" lon="6.127170">
        <ele>0.000000</ele>
        <time>2009-11-20T20:37:29Z</time>
      </trkpt>
      <trkpt lat="50.510220" lon="6.125540">
        <ele>0.000000</ele>
        <time>2009-11-20T20:40:16Z</time>
      </trkpt>
      <trkpt lat="50.509140" lon="6.124080">
        <ele>0.000000</ele>
        <time>2009-11-20T20:42:39Z</time>
      </trkpt>
      <trkpt lat="50.508200" lon="6.122690">
        <ele>0.000000</ele>
        <time>2009-11-20T20:44:48Z</time>
      </trkpt>
      <trkpt lat="50.506660" lon="6.120540">
        <ele>0.000000</ele>
        <time>2009-11-20T20:48:14Z</time>
      </trkpt>
      <trkpt lat="50.504930" lon="6.118010">
        <ele>0.000000</ele>
        <time>2009-11-20T20:52:11Z</time>
      </trkpt>
      <trkpt lat="50.503000" lon="6.115390">
        <ele>0.000000</ele>
        <time>2009-11-20T20:56:26Z</time>
      </trkpt>
      <trkpt lat="50.500560" lon="6.111980">
        <ele>0.000000</ele>
        <time>2009-11-20T21:01:53Z</time>
      </trkpt>
      <trkpt lat="50.499450" lon="6.110500">
        <ele>0.000000</ele>
        <time>2009-11-20T21:04:19Z</time>
      </trkpt>
      <trkpt lat="50.497340" lon="6.107650">
        <ele>0.000000</ele>
        <time>2009-11-20T21:08:58Z</time>
      </trkpt>
      <trkpt lat="50.495360" lon="6.104190">
        <ele>0.000000</ele>
        <time>2009-11-20T21:13:55Z</time>
      </trkpt>
      <trkpt lat="50.495030" lon="6.104620">
        <ele>0.000000</ele>
        <time>2009-11-20T21:14:38Z</time>
      </trkpt>
      <trkpt lat="50.494290" lon="6.102220">
        <ele>0.000000</ele>
        <time>2009-11-20T21:17:28Z</time>
      </trkpt>
      <trkpt lat="50.493610" lon="6.102650">
        <ele>0.000000</ele>
        <time>2009-11-20T21:18:41Z</time>
      </trkpt>
      <trkpt lat="50.492900" lon="6.099510">
        <ele>0.000000</ele>
        <time>2009-11-20T21:22:13Z</time>
      </trkpt>
      <trkpt lat="50.490830" lon="6.093640">
        <ele>0.000000</ele>
        <time>2009-11-20T21:29:21Z</time>
      </trkpt>
      <trkpt lat="50.490390" lon="6.083160">
        <ele>0.000000</ele>
        <time>2009-11-20T21:40:31Z</time>
      </trkpt>
      <trkpt lat="50.490930" lon="6.075270">
        <ele>0.000000</ele>
        <time>2009-11-20T21:48:57Z</time>
      </trkpt>
    </trkseg>
  </trk>

</gpx>
